This is the latest recevied weather packets stored in our database for station/object FW7644. If no packets are shown the sender has not sent any weather packets the latest 10 day(s).
| Time | Temp. | Humidity | Pressure | Rain* | Wind** | Luminosity | Snow |
|---|---|---|---|---|---|---|---|
| 1778086082 | 30.56° C | 43% | 1021.9 hPa | 0 mm | - | - | - |
| 1778085780 | 29.44° C | 46% | 1022.1 hPa | 0 mm | - | - | - |
| 1778085478 | 29.44° C | 46% | 1022.1 hPa | 0 mm | - | - | - |
| 1778085177 | 28.89° C | 47% | 1022.2 hPa | 0 mm | - | - | - |
| 1778084875 | 28.89° C | 46% | 1022.2 hPa | 0 mm | - | - | - |
| 1778084573 | 30.56° C | 43% | 1022.2 hPa | 0 mm | - | - | - |
| 1778084271 | 30° C | 44% | 1022.3 hPa | 0 mm | - | - | - |
| 1778083970 | 30° C | 43% | 1022.3 hPa | 0 mm | - | - | - |
| 1778083668 | 30° C | 44% | 1022.4 hPa | 0 mm | - | - | - |
| 1778083366 | 30° C | 44% | 1022.6 hPa | 0 mm | - | - | - |
| 1778083064 | 30° C | 44% | 1022.6 hPa | 0 mm | - | - | - |
| 1778082762 | 30° C | 43% | 1022.8 hPa | 0 mm | - | - | - |
| 1778082461 | 28.33° C | 46% | 1022.9 hPa | 0 mm | - | - | - |
| 1778082159 | 28.89° C | 45% | 1023.1 hPa | 0 mm | - | - | - |
| 1778081857 | 30° C | 46% | 1023.2 hPa | 0 mm | - | - | - |
| 1778081556 | 30° C | 47% | 1023.3 hPa | 0 mm | - | - | - |
| 1778081254 | 28.33° C | 50% | 1023.5 hPa | 0 mm | - | - | - |
| 1778080952 | 28.89° C | 49% | 1023.5 hPa | 0 mm | - | - | - |
| 1778080650 | 28.89° C | 49% | 1023.6 hPa | 0 mm | - | - | - |
| 1778080348 | 28.89° C | 48% | 1023.8 hPa | 0 mm | - | - | - |
| 1778080046 | 28.33° C | 48% | 1023.9 hPa | 0 mm | - | - | - |
| 1778079744 | 29.44° C | 48% | 1023.9 hPa | 0 mm | - | - | - |
| 1778079442 | 28.33° C | 52% | 1023.9 hPa | 0 mm | - | - | - |
| 1778079140 | 28.33° C | 53% | 1024 hPa | 0 mm | - | - | - |
| 1778078838 | 28.33° C | 54% | 1024.1 hPa | 0 mm | - | - | - |
* Rain latest hour (hover to see other rain measurements)
** Current wind speed in m/s (hover to see current wind gust speed)